createdAt,value
2022-12-26T00:00:18.105Z,1.10
2022-12-26T00:02:20.897Z,1.10
2022-12-26T00:04:50.597Z,1.33
2022-12-26T00:06:46.393Z,1.03
2022-12-26T00:08:50.732Z,1.20
2022-12-26T00:10:53.468Z,1.33
2022-12-26T00:12:56.179Z,1.63
2022-12-26T00:15:18.839Z,1.33
2022-12-26T00:17:21.843Z,1.40
2022-12-26T00:19:27.063Z,1.20
2022-12-26T00:21:29.864Z,1.70
2022-12-26T00:23:32.791Z,1.17
2022-12-26T00:25:37.160Z,1.20
2022-12-26T00:27:39.929Z,1.43
2022-12-26T00:29:42.625Z,1.40
2022-12-26T00:31:45.338Z,1.40
2022-12-26T00:33:48.464Z,1.53
2022-12-26T00:35:51.267Z,1.50
2022-12-26T00:37:54.004Z,1.30
2022-12-26T00:39:57.274Z,1.17
2022-12-26T00:42:01.637Z,1.40
2022-12-26T00:44:04.512Z,1.37
2022-12-26T00:46:07.323Z,1.50
2022-12-26T00:48:10.055Z,1.20
2022-12-26T00:50:15.892Z,1.30
2022-12-26T00:52:18.954Z,1.63
2022-12-26T00:54:21.633Z,1.50
2022-12-26T00:56:24.371Z,1.43
2022-12-26T00:58:37.929Z,1.50
2022-12-26T01:00:40.661Z,1.27
2022-12-26T01:02:43.713Z,1.20
2022-12-26T01:04:46.500Z,1.20
2022-12-26T01:06:49.727Z,1.60
2022-12-26T01:08:52.447Z,1.47
2022-12-26T01:10:55.162Z,1.50
2022-12-26T01:12:57.839Z,1.20
2022-12-26T01:15:02.303Z,1.67
2022-12-26T01:17:05.004Z,1.40
2022-12-26T01:19:07.732Z,1.27
2022-12-26T01:21:11.574Z,1.30
2022-12-26T01:23:14.774Z,1.30
2022-12-26T01:25:17.513Z,1.50
2022-12-26T01:27:20.212Z,1.37
2022-12-26T01:29:23.070Z,1.10
2022-12-26T01:31:27.647Z,1.70
2022-12-26T01:33:30.398Z,1.40
2022-12-26T01:35:33.077Z,1.47
2022-12-26T01:37:35.768Z,1.23
2022-12-26T01:39:39.042Z,1.40
2022-12-26T01:41:41.725Z,1.47
2022-12-26T01:43:50.067Z,1.57
2022-12-26T01:45:55.892Z,1.30
2022-12-26T01:48:03.148Z,1.33
2022-12-26T01:50:05.433Z,1.40
2022-12-26T01:52:10.629Z,1.80
2022-12-26T01:54:37.931Z,1.67
2022-12-26T01:56:37.279Z,1.37
2022-12-26T01:58:42.308Z,1.37
2022-12-26T02:00:45.027Z,1.90
2022-12-26T02:02:59.204Z,1.07
2022-12-26T02:05:14.252Z,1.33
2022-12-26T02:07:16.959Z,1.70
2022-12-26T02:09:19.643Z,1.60
2022-12-26T02:11:23.791Z,1.50
2022-12-26T02:13:29.949Z,1.27
2022-12-26T02:15:32.655Z,1.63
2022-12-26T02:17:35.318Z,1.27
2022-12-26T02:19:41.715Z,1.90
2022-12-26T02:22:00.273Z,1.70
2022-12-26T02:24:14.792Z,1.60
2022-12-26T02:26:30.202Z,1.30
2022-12-26T02:28:50.306Z,1.30
2022-12-26T02:30:54.542Z,1.33
2022-12-26T02:33:09.955Z,1.50
2022-12-26T02:35:15.844Z,1.40
2022-12-26T02:37:24.903Z,1.40
2022-12-26T02:39:44.722Z,1.47
2022-12-26T02:41:50.393Z,1.50
2022-12-26T02:43:59.216Z,1.50
2022-12-26T02:46:18.216Z,1.60
2022-12-26T02:48:21.743Z,1.20
2022-12-26T02:50:37.141Z,1.37
2022-12-26T02:52:55.320Z,1.30
2022-12-26T02:55:12.463Z,1.30
2022-12-26T02:57:33.750Z,1.40
2022-12-26T02:59:57.156Z,1.20
2022-12-26T03:02:12.600Z,1.40
2022-12-26T03:04:26.679Z,1.47
2022-12-26T03:06:41.942Z,1.60
2022-12-26T03:08:58.264Z,1.50
2022-12-26T03:11:11.898Z,1.23
2022-12-26T03:13:17.065Z,1.50
2022-12-26T03:15:20.463Z,1.60
2022-12-26T03:17:26.951Z,1.40
2022-12-26T03:19:29.945Z,1.30
2022-12-26T03:21:34.500Z,1.80
2022-12-26T03:23:37.833Z,1.20
2022-12-26T03:25:55.874Z,1.40
2022-12-26T03:27:58.615Z,1.60
2022-12-26T03:30:12.580Z,1.40
2022-12-26T03:32:15.271Z,1.40
2022-12-26T03:34:18.521Z,1.30
2022-12-26T03:36:24.138Z,1.40
2022-12-26T03:38:30.031Z,1.40
2022-12-26T03:40:55.236Z,1.43
2022-12-26T03:43:12.275Z,1.10
2022-12-26T03:45:32.047Z,1.33
2022-12-26T03:47:51.068Z,1.37
2022-12-26T03:50:11.154Z,1.40
2022-12-26T03:52:30.944Z,1.30
2022-12-26T03:54:47.706Z,1.20
2022-12-26T03:57:03.425Z,1.07
2022-12-26T03:59:20.206Z,1.27
2022-12-26T04:01:34.814Z,1.40
2022-12-26T04:03:49.895Z,1.20
2022-12-26T04:06:05.505Z,1.50
2022-12-26T04:08:23.414Z,1.00
2022-12-26T04:10:38.641Z,1.40
2022-12-26T04:12:52.675Z,1.30
2022-12-26T04:15:08.650Z,1.47
2022-12-26T04:17:26.790Z,1.33
2022-12-26T04:19:45.855Z,1.80
2022-12-26T04:22:03.491Z,1.33
2022-12-26T04:24:19.445Z,1.20
2022-12-26T04:26:35.758Z,1.40
2022-12-26T04:28:49.411Z,1.33
2022-12-26T04:31:07.888Z,1.13
2022-12-26T04:33:23.749Z,1.47
2022-12-26T04:35:42.270Z,1.20
2022-12-26T04:37:57.273Z,1.57
2022-12-26T04:40:11.306Z,1.60
2022-12-26T04:42:25.567Z,1.20
2022-12-26T04:44:28.361Z,1.50
2022-12-26T04:46:31.139Z,1.00
2022-12-26T04:48:45.344Z,1.30
2022-12-26T04:50:52.282Z,1.10
2022-12-26T04:52:58.599Z,1.40
2022-12-26T04:55:01.285Z,1.43
2022-12-26T04:57:05.586Z,1.30
2022-12-26T04:59:08.247Z,1.40
2022-12-26T05:01:25.081Z,1.60
2022-12-26T05:03:42.171Z,1.37
2022-12-26T05:05:59.809Z,1.20
2022-12-26T05:08:17.752Z,1.30
2022-12-26T05:10:22.151Z,1.10
2022-12-26T05:12:27.606Z,1.40
2022-12-26T05:14:31.625Z,1.20
2022-12-26T05:16:45.633Z,1.50
2022-12-26T05:18:59.293Z,1.47
2022-12-26T05:21:13.620Z,1.50
2022-12-26T05:23:30.765Z,1.40
2022-12-26T05:25:45.481Z,1.50
2022-12-26T05:27:59.271Z,1.53
2022-12-26T05:30:01.980Z,1.27
2022-12-26T05:32:08.483Z,1.30
2022-12-26T05:34:12.945Z,1.20
2022-12-26T05:36:15.832Z,1.63
2022-12-26T05:38:19.788Z,1.50
2022-12-26T05:40:22.951Z,1.33
2022-12-26T05:42:25.655Z,1.47
2022-12-26T05:44:28.399Z,1.47
2022-12-26T05:46:31.183Z,1.50
2022-12-26T05:48:34.284Z,1.27
2022-12-26T05:50:36.957Z,1.23
2022-12-26T05:52:39.628Z,1.30
2022-12-26T05:54:43.605Z,1.17
2022-12-26T05:56:49.506Z,1.60
2022-12-26T05:58:55.276Z,1.20
2022-12-26T06:01:05.681Z,1.40
2022-12-26T06:03:08.510Z,1.40
2022-12-26T06:05:11.641Z,1.37
2022-12-26T06:07:14.412Z,1.40
2022-12-26T06:09:17.104Z,1.10
2022-12-26T06:11:21.117Z,1.10
2022-12-26T06:13:24.254Z,1.03
2022-12-26T06:15:26.982Z,1.33
2022-12-26T06:17:29.719Z,1.30
2022-12-26T06:19:32.863Z,1.10
2022-12-26T06:21:36.066Z,1.27
2022-12-26T06:23:38.899Z,1.30
2022-12-26T06:25:41.680Z,1.50
2022-12-26T06:27:45.695Z,1.33
2022-12-26T06:29:48.723Z,1.50
2022-12-26T06:31:51.490Z,1.40
2022-12-26T06:33:56.466Z,1.20
2022-12-26T06:36:04.606Z,1.20
2022-12-26T06:38:07.642Z,1.50
2022-12-26T06:40:11.259Z,1.33
2022-12-26T06:42:14.012Z,1.20
2022-12-26T06:44:18.954Z,1.57
2022-12-26T06:46:22.836Z,1.07
2022-12-26T06:48:25.880Z,1.37
2022-12-26T06:50:28.896Z,1.30
2022-12-26T06:52:32.356Z,1.30
2022-12-26T06:54:35.251Z,1.40
2022-12-26T06:56:38.026Z,1.53
2022-12-26T06:58:42.323Z,1.57
2022-12-26T07:00:47.272Z,1.37
2022-12-26T07:02:52.632Z,1.20
2022-12-26T07:04:55.803Z,1.13
2022-12-26T07:06:58.541Z,1.80
2022-12-26T07:09:03.233Z,1.17
2022-12-26T07:11:06.488Z,1.40
2022-12-26T07:13:09.310Z,1.40
2022-12-26T07:15:12.303Z,1.27
2022-12-26T07:17:17.031Z,1.33
2022-12-26T07:19:19.957Z,1.27
2022-12-26T07:21:23.005Z,1.37
2022-12-26T07:23:25.951Z,1.37
2022-12-26T07:25:29.280Z,1.47
2022-12-26T07:27:32.299Z,1.30
2022-12-26T07:29:35.133Z,1.50
2022-12-26T07:31:38.160Z,1.20
2022-12-26T07:33:43.659Z,1.27
2022-12-26T07:35:46.601Z,1.33
2022-12-26T07:37:49.529Z,1.10
2022-12-26T07:39:58.569Z,1.30
2022-12-26T07:42:01.769Z,1.10
2022-12-26T07:44:06.016Z,1.30
2022-12-26T07:46:08.957Z,1.17
2022-12-26T07:48:12.166Z,1.40
2022-12-26T07:50:16.287Z,1.20
2022-12-26T07:52:19.912Z,1.20
2022-12-26T07:54:22.773Z,1.10
2022-12-26T07:56:25.889Z,1.20
2022-12-26T07:58:31.920Z,1.57
2022-12-26T08:00:34.631Z,1.37
2022-12-26T08:02:38.387Z,1.30
2022-12-26T08:04:41.992Z,1.47
2022-12-26T08:06:47.100Z,1.10
2022-12-26T08:08:51.335Z,1.17
2022-12-26T08:10:59.848Z,1.80
2022-12-26T08:13:04.595Z,1.30
2022-12-26T08:15:08.099Z,1.37
2022-12-26T08:17:11.291Z,1.10
2022-12-26T08:19:14.379Z,0.90
2022-12-26T08:21:17.259Z,1.40
2022-12-26T08:23:21.614Z,1.40
2022-12-26T08:25:24.546Z,1.13
2022-12-26T08:27:27.517Z,1.30
2022-12-26T08:29:30.541Z,1.27
2022-12-26T08:31:33.903Z,1.27
2022-12-26T08:33:36.648Z,1.20
2022-12-26T08:35:40.035Z,1.20
2022-12-26T08:37:44.276Z,1.33
2022-12-26T08:39:49.475Z,1.20
2022-12-26T08:41:52.460Z,1.37
2022-12-26T08:46:18.721Z,1.47
2022-12-26T08:48:21.987Z,1.27
2022-12-26T08:50:24.822Z,1.10
2022-12-26T08:52:27.534Z,1.27
2022-12-26T08:54:30.371Z,1.10
2022-12-26T08:56:34.867Z,1.30
2022-12-26T08:58:37.556Z,1.20
2022-12-26T09:00:40.279Z,1.37
2022-12-26T09:02:43.188Z,1.20
2022-12-26T09:04:46.287Z,1.30
2022-12-26T09:06:48.999Z,1.30
2022-12-26T09:08:51.985Z,1.30
2022-12-26T09:10:55.216Z,1.50
2022-12-26T09:12:59.604Z,1.10
2022-12-26T09:15:02.311Z,1.30
2022-12-26T09:17:05.117Z,1.37
2022-12-26T09:19:07.908Z,1.60
2022-12-26T09:21:11.834Z,1.40
2022-12-26T09:23:15.463Z,1.40
2022-12-26T09:25:18.301Z,1.40
2022-12-26T09:27:21.327Z,1.40
2022-12-26T09:29:25.805Z,1.50
2022-12-26T09:31:29.445Z,1.27
2022-12-26T09:33:36.202Z,1.30
2022-12-26T09:35:40.705Z,1.07
2022-12-26T09:37:43.825Z,1.40
2022-12-26T09:39:46.574Z,1.27
2022-12-26T09:41:55.623Z,1.30
2022-12-26T09:44:02.047Z,1.50
2022-12-26T09:46:12.233Z,1.10
2022-12-26T09:48:19.521Z,1.30
2022-12-26T09:50:26.083Z,1.30
2022-12-26T09:52:36.238Z,1.47
2022-12-26T09:54:41.472Z,1.10
2022-12-26T09:59:09.737Z,1.50
2022-12-26T10:01:17.252Z,1.33
2022-12-26T10:03:20.442Z,1.37
2022-12-26T10:05:23.584Z,1.20
2022-12-26T10:07:29.115Z,1.50
2022-12-26T10:09:42.509Z,1.50
2022-12-26T10:11:52.061Z,1.13
2022-12-26T10:13:57.472Z,1.40
2022-12-26T10:16:02.028Z,1.60
2022-12-26T10:18:23.645Z,1.50
2022-12-26T10:20:32.083Z,1.57
2022-12-26T10:22:55.015Z,1.30
2022-12-26T10:24:58.412Z,1.47
2022-12-26T10:27:02.961Z,1.30
2022-12-26T10:29:11.526Z,1.37
2022-12-26T10:31:17.799Z,1.20
2022-12-26T10:33:26.977Z,1.40
2022-12-26T10:35:32.253Z,1.23
2022-12-26T10:37:37.247Z,1.73
2022-12-26T10:39:42.445Z,1.90
2022-12-26T10:41:47.987Z,1.57
2022-12-26T10:43:50.766Z,1.70
2022-12-26T10:46:04.969Z,1.50
2022-12-26T10:48:08.748Z,1.50
2022-12-26T10:50:16.077Z,2.00
2022-12-26T10:52:19.891Z,2.17
2022-12-26T10:54:22.600Z,1.67
2022-12-26T10:56:25.414Z,1.47
2022-12-26T10:58:30.706Z,1.83
2022-12-26T11:00:34.274Z,2.03
2022-12-26T11:02:37.230Z,1.97
2022-12-26T11:05:11.616Z,2.23
2022-12-26T11:07:04.240Z,2.40
2022-12-26T11:09:10.257Z,2.33
2022-12-26T11:11:15.462Z,2.60
2022-12-26T11:13:20.054Z,2.40
2022-12-26T11:15:25.268Z,2.00
2022-12-26T11:17:28.913Z,2.63
2022-12-26T11:19:33.119Z,2.50
2022-12-26T11:21:38.780Z,2.30
2022-12-26T11:23:44.094Z,2.70
2022-12-26T11:25:51.870Z,2.40
2022-12-26T11:27:55.886Z,2.13
2022-12-26T11:30:12.075Z,2.13
2022-12-26T11:32:19.896Z,2.00
2022-12-26T11:34:28.353Z,1.93
2022-12-26T11:36:32.489Z,2.10
2022-12-26T11:38:45.400Z,1.80
2022-12-26T11:41:09.731Z,1.70
2022-12-26T11:43:15.006Z,2.00
2022-12-26T11:45:23.754Z,1.80
2022-12-26T11:47:28.261Z,1.93
2022-12-26T11:49:33.112Z,1.73
2022-12-26T11:51:38.743Z,1.40
2022-12-26T11:53:42.150Z,1.70
2022-12-26T11:55:45.045Z,1.47
2022-12-26T11:57:58.537Z,1.80
2022-12-26T12:00:16.895Z,1.70
2022-12-26T12:02:25.984Z,1.50
2022-12-26T12:04:28.778Z,1.40
2022-12-26T12:06:41.729Z,1.40
2022-12-26T12:08:46.660Z,2.00
2022-12-26T12:10:55.732Z,1.13
2022-12-26T12:13:03.279Z,1.73
2022-12-26T12:15:12.704Z,1.57
2022-12-26T12:17:21.498Z,1.50
2022-12-26T12:19:33.571Z,1.30
2022-12-26T12:21:48.259Z,1.57
2022-12-26T12:24:08.029Z,1.83
2022-12-26T12:26:23.829Z,1.30
2022-12-26T12:28:38.290Z,1.40
2022-12-26T12:30:43.935Z,1.33
2022-12-26T12:32:58.322Z,1.60
2022-12-26T12:35:20.241Z,1.40
2022-12-26T12:37:27.401Z,1.40
2022-12-26T12:39:38.734Z,1.30
2022-12-26T12:41:56.406Z,1.57
2022-12-26T12:44:03.837Z,1.30
2022-12-26T12:46:09.971Z,1.20
2022-12-26T12:48:32.597Z,1.23
2022-12-26T12:50:38.562Z,1.43
2022-12-26T12:52:44.248Z,1.10
2022-12-26T12:55:02.575Z,1.03
2022-12-26T12:57:08.382Z,1.27
2022-12-26T12:59:18.362Z,1.30
2022-12-26T13:01:24.129Z,1.20
2022-12-26T13:03:29.907Z,1.07
2022-12-26T13:05:40.458Z,1.30
2022-12-26T13:07:47.660Z,1.00
2022-12-26T13:09:52.274Z,1.00
2022-12-26T13:11:58.007Z,1.10
2022-12-26T13:14:02.572Z,1.10
2022-12-26T13:16:09.700Z,1.07
2022-12-26T13:18:14.187Z,1.10
2022-12-26T13:20:19.192Z,1.20
2022-12-26T13:22:25.810Z,0.90
2022-12-26T13:24:31.843Z,1.17
2022-12-26T13:26:37.069Z,1.07
2022-12-26T13:28:49.665Z,1.03
2022-12-26T13:30:57.707Z,1.03
2022-12-26T13:33:02.012Z,0.93
2022-12-26T13:35:05.442Z,1.03
2022-12-26T13:37:08.593Z,1.03
2022-12-26T13:39:33.102Z,1.10
2022-12-26T13:41:47.160Z,0.80
2022-12-26T13:44:05.788Z,1.00
2022-12-26T13:46:27.575Z,0.80
2022-12-26T13:48:57.352Z,1.13
2022-12-26T13:51:01.443Z,1.17
2022-12-26T13:53:05.270Z,1.00
2022-12-26T13:55:31.395Z,1.20
2022-12-26T13:57:40.168Z,1.00
2022-12-26T13:59:45.552Z,1.03
2022-12-26T14:01:55.350Z,0.90
2022-12-26T14:04:15.570Z,1.10
2022-12-26T14:06:41.722Z,1.00
2022-12-26T14:08:55.023Z,0.80
2022-12-26T14:11:02.882Z,0.87
2022-12-26T14:13:10.251Z,1.30
2022-12-26T14:15:22.012Z,0.90
2022-12-26T14:17:30.971Z,0.80
2022-12-26T14:19:42.632Z,0.90
2022-12-26T14:21:50.572Z,0.97
2022-12-26T14:23:58.501Z,0.87
2022-12-26T14:26:04.738Z,1.00
2022-12-26T14:28:15.662Z,1.00
2022-12-26T14:30:22.768Z,1.07
2022-12-26T14:32:34.119Z,0.70
2022-12-26T14:34:47.854Z,0.77
2022-12-26T14:36:54.074Z,1.00
2022-12-26T14:39:00.003Z,1.27
2022-12-26T14:41:06.673Z,1.10
2022-12-26T14:43:31.047Z,0.90
2022-12-26T14:45:43.091Z,0.90
2022-12-26T14:47:46.807Z,0.90
2022-12-26T14:49:52.697Z,1.00
2022-12-26T14:51:55.683Z,1.10
2022-12-26T14:54:17.598Z,1.00
2022-12-26T14:56:32.711Z,1.20
2022-12-26T14:58:43.732Z,0.97
2022-12-26T15:00:47.078Z,0.87
2022-12-26T15:02:52.590Z,0.80
2022-12-26T15:05:06.676Z,0.73
2022-12-26T15:07:22.816Z,0.73
2022-12-26T15:09:45.726Z,1.03
2022-12-26T15:12:04.025Z,0.90
2022-12-26T15:14:30.045Z,0.80
2022-12-26T15:16:41.799Z,0.77
2022-12-26T15:18:57.782Z,0.90
2022-12-26T15:21:14.028Z,0.90
2022-12-26T15:23:37.980Z,0.80
2022-12-26T15:25:59.086Z,0.80
2022-12-26T15:28:22.825Z,0.77
2022-12-26T15:30:31.424Z,0.80
2022-12-26T15:32:37.605Z,1.07
2022-12-26T15:34:50.719Z,0.77
2022-12-26T15:36:56.862Z,0.87
2022-12-26T15:39:06.032Z,1.00
2022-12-26T15:41:14.084Z,0.93
2022-12-26T15:43:26.537Z,0.60
2022-12-26T15:45:37.434Z,1.23
2022-12-26T15:47:44.381Z,0.90
2022-12-26T15:50:08.135Z,0.90
2022-12-26T15:52:18.492Z,0.80
2022-12-26T15:54:28.840Z,0.93
2022-12-26T15:56:46.018Z,0.73
2022-12-26T15:59:02.995Z,1.00
2022-12-26T16:01:11.073Z,0.77
2022-12-26T16:03:21.849Z,0.80
2022-12-26T16:05:38.730Z,0.87
2022-12-26T16:07:45.088Z,1.00
2022-12-26T16:09:49.756Z,0.80
2022-12-26T16:11:54.814Z,1.03
2022-12-26T16:14:00.374Z,0.70
2022-12-26T16:16:03.393Z,0.90
2022-12-26T16:18:16.069Z,0.93
2022-12-26T16:20:40.765Z,0.70
2022-12-26T16:22:46.324Z,0.87
2022-12-26T16:24:51.393Z,0.80
2022-12-26T16:26:55.265Z,0.80
2022-12-26T16:28:59.257Z,0.90
2022-12-26T16:31:02.101Z,0.70
2022-12-26T16:33:05.391Z,0.90
2022-12-26T16:35:08.866Z,0.90
2022-12-26T16:37:13.357Z,0.77
2022-12-26T16:39:22.328Z,0.97
2022-12-26T16:41:25.845Z,0.90
2022-12-26T16:43:29.657Z,1.20
2022-12-26T16:45:35.416Z,0.87
2022-12-26T16:47:38.701Z,1.00
2022-12-26T16:49:41.674Z,0.93
2022-12-26T16:51:46.429Z,0.80
2022-12-26T16:53:49.204Z,0.97
2022-12-26T16:55:53.348Z,1.10
2022-12-26T16:57:57.173Z,0.83
2022-12-26T17:00:00.316Z,0.70
2022-12-26T17:02:03.249Z,0.93
2022-12-26T17:04:08.032Z,1.10
2022-12-26T17:06:12.694Z,0.70
2022-12-26T17:08:15.890Z,0.90
2022-12-26T17:10:19.555Z,0.73
2022-12-26T17:12:25.132Z,0.80
2022-12-26T17:14:29.465Z,0.80
2022-12-26T17:16:32.735Z,1.30
2022-12-26T17:18:42.135Z,0.90
2022-12-26T17:20:44.978Z,0.90
2022-12-26T17:22:47.725Z,1.10
2022-12-26T17:24:50.973Z,1.10
2022-12-26T17:27:08.557Z,0.90
2022-12-26T17:29:38.329Z,1.10
2022-12-26T17:31:41.747Z,0.90
2022-12-26T17:33:48.112Z,1.00
2022-12-26T17:38:16.137Z,0.97
2022-12-26T17:40:23.185Z,0.90
2022-12-26T17:42:26.514Z,1.10
2022-12-26T17:44:34.880Z,0.90
2022-12-26T17:46:38.916Z,0.70
2022-12-26T17:48:41.878Z,0.90
2022-12-26T17:50:46.300Z,0.97
2022-12-26T17:52:49.032Z,0.90
2022-12-26T17:54:51.896Z,0.97
2022-12-26T17:56:54.694Z,1.10
2022-12-26T17:58:57.821Z,1.60
2022-12-26T18:01:00.877Z,1.67
2022-12-26T18:03:05.682Z,1.20
2022-12-26T18:05:08.940Z,1.40
2022-12-26T18:07:13.918Z,1.40
2022-12-26T18:09:22.093Z,1.30
2022-12-26T18:11:24.994Z,1.30
2022-12-26T18:13:27.838Z,1.30
2022-12-26T18:15:31.855Z,1.07
2022-12-26T18:17:34.678Z,1.07
2022-12-26T18:19:39.495Z,1.10
2022-12-26T18:21:42.348Z,1.20
2022-12-26T18:23:45.529Z,1.10
2022-12-26T18:25:54.175Z,1.13
2022-12-26T18:27:57.575Z,1.30
2022-12-26T18:30:00.633Z,1.03
2022-12-26T18:32:07.303Z,1.10
2022-12-26T18:34:10.114Z,1.17
2022-12-26T18:36:14.550Z,1.33
2022-12-26T18:38:18.264Z,0.90
2022-12-26T18:40:34.097Z,0.80
2022-12-26T18:42:36.809Z,0.90
2022-12-26T18:44:39.968Z,0.90
2022-12-26T18:46:42.765Z,1.00
2022-12-26T18:48:46.082Z,1.00
2022-12-26T18:50:49.873Z,0.80
2022-12-26T18:52:54.291Z,0.80
2022-12-26T18:54:57.484Z,1.20
2022-12-26T18:57:00.735Z,0.80
2022-12-26T18:59:03.459Z,1.07
2022-12-26T19:01:06.695Z,0.93
2022-12-26T19:03:09.562Z,1.00
2022-12-26T19:05:16.708Z,0.93
2022-12-26T19:07:20.288Z,1.00
2022-12-26T19:09:24.448Z,0.83
2022-12-26T19:11:27.153Z,0.80
2022-12-26T19:13:30.280Z,1.03
2022-12-26T19:15:33.327Z,1.00
2022-12-26T19:17:36.603Z,0.90
2022-12-26T19:19:45.165Z,0.90
2022-12-26T19:21:48.387Z,0.93
2022-12-26T19:23:51.098Z,0.90
2022-12-26T19:25:55.243Z,0.97
2022-12-26T19:27:58.127Z,1.03
2022-12-26T19:30:01.303Z,0.80
2022-12-26T19:32:04.708Z,0.90
2022-12-26T19:34:07.674Z,0.80
2022-12-26T19:36:10.973Z,1.10
2022-12-26T19:38:14.135Z,0.80
2022-12-26T19:40:22.953Z,0.90
2022-12-26T19:42:29.079Z,1.10
2022-12-26T19:44:32.825Z,0.87
2022-12-26T19:46:35.620Z,0.60
2022-12-26T19:48:41.506Z,0.70
2022-12-26T19:50:44.255Z,0.93
2022-12-26T19:52:47.951Z,0.93
2022-12-26T19:54:50.734Z,0.70
2022-12-26T19:56:53.502Z,0.90
2022-12-26T19:58:57.530Z,0.73
2022-12-26T20:01:06.739Z,0.90
2022-12-26T20:03:12.544Z,0.80
2022-12-26T20:05:15.331Z,0.80
2022-12-26T20:07:18.070Z,0.80
2022-12-26T20:09:21.515Z,0.80
2022-12-26T20:11:25.755Z,1.00
2022-12-26T20:13:28.583Z,0.90
2022-12-26T20:15:33.461Z,0.80
2022-12-26T20:17:37.211Z,1.10
2022-12-26T20:19:40.279Z,0.90
2022-12-26T20:21:43.029Z,0.90
2022-12-26T20:23:46.332Z,0.83
2022-12-26T20:25:49.332Z,0.80
2022-12-26T20:27:53.328Z,0.93
2022-12-26T20:29:56.048Z,0.93
2022-12-26T20:32:00.581Z,0.83
2022-12-26T20:34:04.127Z,0.70
2022-12-26T20:36:10.413Z,1.27
2022-12-26T20:38:13.405Z,0.80
2022-12-26T20:40:17.267Z,0.70
2022-12-26T20:42:22.753Z,0.80
2022-12-26T20:44:26.167Z,0.90
2022-12-26T20:46:31.100Z,1.20
2022-12-26T20:48:35.370Z,0.90
2022-12-26T20:50:38.755Z,1.20
2022-12-26T20:52:41.522Z,1.10
2022-12-26T20:54:44.652Z,1.30
2022-12-26T20:56:47.680Z,0.80
2022-12-26T20:58:50.987Z,0.90
2022-12-26T21:00:56.947Z,1.10
2022-12-26T21:03:00.449Z,1.27
2022-12-26T21:05:04.935Z,0.80
2022-12-26T21:07:08.547Z,1.20
2022-12-26T21:09:11.659Z,1.20
2022-12-26T21:11:16.259Z,0.77
2022-12-26T21:13:19.214Z,1.10
2022-12-26T21:15:22.301Z,1.13
2022-12-26T21:17:25.334Z,1.20
2022-12-26T21:19:29.407Z,1.10
2022-12-26T21:21:36.716Z,0.90
2022-12-26T21:23:40.299Z,0.93
2022-12-26T21:25:43.327Z,0.80
2022-12-26T21:27:49.581Z,0.90
2022-12-26T21:29:52.809Z,0.90
2022-12-26T21:31:56.162Z,0.97
2022-12-26T21:33:59.693Z,1.20
2022-12-26T21:36:02.446Z,1.03
2022-12-26T21:38:05.509Z,0.90
2022-12-26T21:40:09.470Z,1.10
2022-12-26T21:42:12.251Z,1.30
2022-12-26T21:44:15.029Z,1.00
2022-12-26T21:46:19.041Z,1.17
2022-12-26T21:48:22.049Z,0.90
2022-12-26T21:50:24.752Z,0.93
2022-12-26T21:52:27.482Z,1.00
2022-12-26T21:54:48.605Z,1.00
2022-12-26T21:56:52.162Z,1.00
2022-12-26T21:59:05.827Z,1.20
2022-12-26T22:01:08.662Z,0.80
2022-12-26T22:03:26.756Z,1.00
2022-12-26T22:05:30.350Z,0.90
2022-12-26T22:07:33.107Z,1.00
2022-12-26T22:09:37.054Z,1.03
2022-12-26T22:11:51.067Z,1.23
2022-12-26T22:13:53.846Z,1.00
2022-12-26T22:16:03.444Z,1.10
2022-12-26T22:18:06.295Z,1.10
2022-12-26T22:20:09.763Z,1.00
2022-12-26T22:22:12.478Z,0.80
2022-12-26T22:24:15.562Z,1.00
2022-12-26T22:26:20.247Z,0.87
2022-12-26T22:28:23.811Z,1.03
2022-12-26T22:30:26.542Z,1.07
2022-12-26T22:32:29.269Z,1.20
2022-12-26T22:34:31.952Z,1.00
2022-12-26T22:36:35.003Z,1.00
2022-12-26T22:38:38.051Z,1.13
2022-12-26T22:40:40.738Z,0.90
2022-12-26T22:42:44.759Z,0.87
2022-12-26T22:44:47.485Z,1.20
2022-12-26T22:46:50.283Z,1.00
2022-12-26T22:48:53.122Z,1.07
2022-12-26T22:50:56.368Z,1.33
2022-12-26T22:52:59.097Z,0.90
2022-12-26T22:55:01.864Z,1.20
2022-12-26T22:57:04.681Z,0.83
2022-12-26T22:59:10.641Z,0.93
2022-12-26T23:01:14.548Z,0.90
2022-12-26T23:03:17.398Z,1.10
2022-12-26T23:05:20.555Z,1.00
2022-12-26T23:07:24.318Z,1.10
2022-12-26T23:09:27.382Z,0.70
2022-12-26T23:11:34.812Z,1.17
2022-12-26T23:13:38.427Z,1.10
2022-12-26T23:15:49.004Z,1.40
2022-12-26T23:18:07.106Z,1.20
2022-12-26T23:20:22.442Z,0.93
2022-12-26T23:22:25.352Z,0.90
2022-12-26T23:24:29.839Z,0.90
2022-12-26T23:26:32.506Z,1.20
2022-12-26T23:28:46.205Z,0.90
2022-12-26T23:30:50.200Z,1.20
2022-12-26T23:32:53.981Z,1.20
2022-12-26T23:34:56.684Z,1.33
2022-12-26T23:36:59.370Z,1.30
2022-12-26T23:39:02.085Z,1.10
2022-12-26T23:41:05.224Z,0.97
2022-12-26T23:43:07.907Z,1.27
2022-12-26T23:45:11.558Z,1.00
2022-12-26T23:47:15.539Z,0.87
2022-12-26T23:49:18.736Z,1.00
2022-12-26T23:51:21.438Z,1.20
2022-12-26T23:53:24.097Z,0.97
2022-12-26T23:55:26.812Z,1.00
2022-12-26T23:57:29.996Z,1.00
2022-12-26T23:59:32.737Z,1.10
